Frias, Argentina
Current Conditions -  °F | °C
As of 11:00 PM on Friday 21 Nov 2014 (Local Time) from SANT Reporting Station
Clear Clear  
Wind Chill: 64°   Ceiling: Unl
Heat Index: 64°   Visibility: 6mi
Dew Point: 61°   Wind: 2mph
Humidity: 88%   Direction: 320°NW
Pressure: 29.97"   Gusts: NA
Location:  28.65°S, 65.15°W
Report Text: SANT 220200Z 32002KT CAVOK 18/16 Q1015
Loading
Personal Weather Stations






























Interactive Weather Map New forecast layout! Learn more

10-Day Weather Forecast

Advertisements
Track Severe Weather on mobile